createdAt,value
2018-05-05T00:00:31.879Z,14.39
2018-05-05T00:02:59.518Z,14.40
2018-05-05T00:05:27.114Z,14.44
2018-05-05T00:07:54.769Z,14.43
2018-05-05T00:10:22.357Z,14.41
2018-05-05T00:12:50.011Z,14.42
2018-05-05T00:15:17.626Z,14.45
2018-05-05T00:17:45.267Z,14.40
2018-05-05T00:20:12.892Z,14.48
2018-05-05T00:22:40.561Z,14.41
2018-05-05T00:25:08.292Z,14.37
2018-05-05T00:27:36.012Z,14.37
2018-05-05T00:30:03.778Z,14.28
2018-05-05T00:32:31.429Z,14.30
2018-05-05T00:34:59.027Z,14.16
2018-05-05T00:37:27.434Z,14.08
2018-05-05T00:39:55.029Z,14.07
2018-05-05T00:42:22.717Z,14.02
2018-05-05T00:44:50.370Z,14.04
2018-05-05T00:47:17.959Z,14.20
2018-05-05T00:49:45.648Z,14.21
2018-05-05T00:52:13.372Z,14.19
2018-05-05T00:54:50.752Z,14.10
2018-05-05T00:57:18.420Z,14.08
2018-05-05T00:59:46.434Z,14.08
2018-05-05T01:02:14.068Z,14.07
2018-05-05T01:04:41.713Z,14.16
2018-05-05T01:07:09.594Z,14.17
2018-05-05T01:09:37.249Z,14.07
2018-05-05T01:12:04.904Z,14.14
2018-05-05T01:14:32.564Z,14.23
2018-05-05T01:17:00.256Z,14.25
2018-05-05T01:19:28.127Z,14.26
2018-05-05T01:21:55.733Z,14.25
2018-05-05T01:24:23.908Z,14.30
2018-05-05T01:26:51.540Z,14.32
2018-05-05T01:29:19.481Z,14.26
2018-05-05T01:31:47.548Z,14.19
2018-05-05T01:34:15.168Z,14.14
2018-05-05T01:36:43.286Z,14.16
2018-05-05T01:39:11.532Z,14.25
2018-05-05T01:41:39.416Z,14.26
2018-05-05T01:44:07.910Z,14.32
2018-05-05T01:46:35.514Z,14.35
2018-05-05T01:49:03.459Z,14.33
2018-05-05T01:51:31.923Z,14.33
2018-05-05T01:53:59.934Z,14.34
2018-05-05T01:56:28.460Z,14.41
2018-05-05T01:58:56.102Z,14.30
2018-05-05T02:01:23.737Z,14.28
2018-05-05T02:03:51.559Z,14.27
2018-05-05T02:06:19.940Z,14.27
2018-05-05T02:08:47.551Z,14.27
2018-05-05T02:11:15.676Z,14.27
2018-05-05T02:13:44.101Z,14.27
2018-05-05T02:16:11.774Z,14.23
2018-05-05T02:18:39.409Z,14.26
2018-05-05T02:21:07.243Z,14.24
2018-05-05T02:23:34.910Z,14.26
2018-05-05T02:26:03.207Z,14.22
2018-05-05T02:28:30.879Z,14.21
2018-05-05T02:30:58.724Z,14.25
2018-05-05T02:33:27.055Z,14.19
2018-05-05T02:35:55.447Z,14.08
2018-05-05T02:38:23.328Z,14.13
2018-05-05T02:40:50.999Z,14.14
2018-05-05T02:43:19.259Z,14.13
2018-05-05T02:45:47.357Z,14.13
2018-05-05T02:48:15.013Z,14.09
2018-05-05T02:50:43.597Z,14.12
2018-05-05T02:53:12.067Z,14.06
2018-05-05T02:55:39.850Z,14.03
2018-05-05T02:58:07.511Z,14.03
2018-05-05T03:00:35.157Z,14.03
2018-05-05T03:03:02.797Z,14.02
2018-05-05T03:05:30.478Z,14.03
2018-05-05T03:07:58.117Z,14.02
2018-05-05T03:10:25.724Z,14.08
2018-05-05T03:12:53.368Z,13.93
2018-05-05T03:15:21.045Z,13.84
2018-05-05T03:17:48.757Z,13.83
2018-05-05T03:20:16.443Z,13.89
2018-05-05T03:22:44.677Z,13.92
2018-05-05T03:25:12.351Z,13.88
2018-05-05T03:27:39.987Z,13.74
2018-05-05T03:30:07.631Z,13.63
2018-05-05T03:32:35.286Z,13.62
2018-05-05T03:35:03.383Z,13.77
2018-05-05T03:37:31.070Z,13.84
2018-05-05T03:39:59.100Z,13.81
2018-05-05T03:42:26.776Z,13.86
2018-05-05T03:44:54.406Z,13.85
2018-05-05T03:47:22.051Z,13.85
2018-05-05T03:49:49.646Z,13.85
2018-05-05T03:52:17.273Z,13.87
2018-05-05T03:54:45.062Z,13.85
2018-05-05T03:57:12.697Z,13.88
2018-05-05T03:59:52.196Z,13.91
2018-05-05T04:02:31.508Z,13.77
2018-05-05T04:07:54.462Z,13.87
2018-05-05T04:10:22.150Z,13.81
2018-05-05T04:12:49.764Z,13.79
2018-05-05T04:15:18.608Z,13.89
2018-05-05T04:17:46.278Z,13.91
2018-05-05T04:20:13.909Z,13.93
2018-05-05T04:22:41.568Z,13.90
2018-05-05T04:25:09.196Z,13.81
2018-05-05T04:27:36.857Z,13.84
2018-05-05T04:30:04.558Z,13.94
2018-05-05T04:32:32.166Z,14.03
2018-05-05T04:34:59.808Z,14.09
2018-05-05T04:37:27.431Z,14.09
2018-05-05T04:39:55.068Z,14.10
2018-05-05T04:42:22.725Z,14.02
2018-05-05T04:44:50.398Z,13.99
2018-05-05T04:47:18.117Z,13.99
2018-05-05T04:49:45.754Z,13.96
2018-05-05T04:52:13.433Z,13.98
2018-05-05T04:54:41.062Z,14.00
2018-05-05T04:57:08.673Z,14.02
2018-05-05T04:59:36.338Z,14.06
2018-05-05T05:02:03.952Z,14.01
2018-05-05T05:04:31.577Z,13.99
2018-05-05T05:06:59.235Z,14.06
2018-05-05T05:09:26.846Z,14.06
2018-05-05T05:11:54.511Z,14.05
2018-05-05T05:14:22.145Z,13.90
2018-05-05T05:16:49.913Z,13.75
2018-05-05T05:19:17.486Z,13.75
2018-05-05T05:21:45.131Z,13.78
2018-05-05T05:24:12.842Z,13.84
2018-05-05T05:26:40.499Z,13.84
2018-05-05T05:29:08.143Z,13.98
2018-05-05T05:31:35.765Z,13.98
2018-05-05T05:34:03.520Z,14.09
2018-05-05T05:36:31.239Z,14.19
2018-05-05T05:38:58.944Z,14.25
2018-05-05T05:41:26.607Z,14.35
2018-05-05T05:43:54.307Z,14.37
2018-05-05T05:46:22.191Z,14.38
2018-05-05T05:48:49.872Z,14.38
2018-05-05T05:51:17.572Z,14.39
2018-05-05T05:53:45.198Z,14.39
2018-05-05T05:56:12.994Z,14.39
2018-05-05T05:58:40.623Z,14.39
2018-05-05T06:01:09.120Z,14.44
2018-05-05T06:03:36.776Z,14.49
2018-05-05T06:06:04.470Z,14.58
2018-05-05T06:08:32.130Z,14.62
2018-05-05T06:10:59.935Z,14.69
2018-05-05T06:13:27.549Z,14.70
2018-05-05T06:15:55.219Z,14.67
2018-05-05T06:18:22.875Z,14.67
2018-05-05T06:20:50.527Z,14.79
2018-05-05T06:23:18.125Z,14.76
2018-05-05T06:25:45.830Z,14.72
2018-05-05T06:28:13.436Z,14.75
2018-05-05T06:30:41.859Z,14.82
2018-05-05T06:33:09.570Z,14.67
2018-05-05T06:35:37.254Z,14.68
2018-05-05T06:38:04.978Z,14.81
2018-05-05T06:40:33.466Z,14.93
2018-05-05T06:43:01.086Z,15.07
2018-05-05T06:45:28.777Z,15.02
2018-05-05T06:47:56.491Z,14.95
2018-05-05T06:50:24.178Z,14.95
2018-05-05T06:52:51.802Z,14.96
2018-05-05T06:55:19.470Z,15.02
2018-05-05T06:57:47.068Z,15.04
2018-05-05T07:00:14.699Z,15.19
2018-05-05T07:02:42.420Z,15.29
2018-05-05T07:05:10.046Z,15.23
2018-05-05T07:07:37.919Z,15.55
2018-05-05T07:10:05.782Z,15.68
2018-05-05T07:12:33.464Z,15.87
2018-05-05T07:15:01.152Z,15.82
2018-05-05T07:17:28.807Z,15.98
2018-05-05T07:19:56.529Z,15.89
2018-05-05T07:22:24.193Z,15.96
2018-05-05T07:24:52.109Z,15.89
2018-05-05T07:27:19.813Z,16.09
2018-05-05T07:29:47.926Z,16.10
2018-05-05T07:32:15.533Z,16.04
2018-05-05T07:34:43.185Z,16.09
2018-05-05T07:37:10.839Z,16.17
2018-05-05T07:39:38.468Z,16.48
2018-05-05T07:42:06.130Z,16.62
2018-05-05T07:44:33.773Z,16.73
2018-05-05T07:47:01.392Z,16.77
2018-05-05T07:49:29.036Z,16.84
2018-05-05T07:51:56.658Z,16.66
2018-05-05T07:54:24.359Z,16.68
2018-05-05T07:56:52.064Z,16.75
2018-05-05T07:59:19.846Z,16.79
2018-05-05T08:01:47.450Z,16.76
2018-05-05T08:04:15.108Z,16.77
2018-05-05T08:06:42.762Z,16.95
2018-05-05T08:09:10.474Z,16.75
2018-05-05T08:11:38.092Z,16.60
2018-05-05T08:14:05.701Z,16.74
2018-05-05T08:16:33.375Z,16.88
2018-05-05T08:19:01.517Z,16.91
2018-05-05T08:21:29.878Z,17.19
2018-05-05T08:23:57.512Z,17.35
2018-05-05T08:26:25.216Z,17.19
2018-05-05T08:28:52.864Z,17.55
2018-05-05T08:31:20.500Z,18.41
2018-05-05T08:33:48.144Z,18.48
2018-05-05T08:36:15.867Z,18.87
2018-05-05T08:38:43.522Z,18.32
2018-05-05T08:41:11.223Z,18.16
2018-05-05T08:43:38.828Z,18.46
2018-05-05T08:46:06.480Z,18.24
2018-05-05T08:48:34.079Z,17.66
2018-05-05T08:51:01.756Z,17.56
2018-05-05T08:53:30.393Z,17.57
2018-05-05T08:55:58.034Z,17.52
2018-05-05T08:58:25.717Z,17.88
2018-05-05T09:00:53.373Z,17.69
2018-05-05T09:03:21.972Z,17.58
2018-05-05T09:05:49.612Z,17.76
2018-05-05T09:08:17.281Z,17.59
2018-05-05T09:10:44.916Z,17.61
2018-05-05T09:13:12.612Z,17.72
2018-05-05T09:15:40.264Z,17.63
2018-05-05T09:18:07.955Z,17.71
2018-05-05T09:20:35.626Z,17.72
2018-05-05T09:23:04.049Z,17.50
2018-05-05T09:25:31.739Z,17.39
2018-05-05T09:27:59.417Z,17.32
2018-05-05T09:30:27.071Z,17.23
2018-05-05T09:32:54.735Z,17.28
2018-05-05T09:35:22.371Z,17.43
2018-05-05T09:37:50.087Z,17.50
2018-05-05T09:40:17.760Z,17.51
2018-05-05T09:42:45.501Z,17.43
2018-05-05T09:45:13.125Z,17.38
2018-05-05T09:47:40.825Z,17.32
2018-05-05T09:50:08.427Z,17.29
2018-05-05T09:52:36.067Z,17.35
2018-05-05T09:55:03.790Z,17.33
2018-05-05T09:57:31.421Z,17.39
2018-05-05T09:59:59.070Z,17.45
2018-05-05T10:02:26.752Z,17.44
2018-05-05T10:04:54.426Z,17.56
2018-05-05T10:07:22.152Z,17.54
2018-05-05T10:09:49.847Z,17.48
2018-05-05T10:12:17.525Z,17.69
2018-05-05T10:14:45.158Z,17.49
2018-05-05T10:17:12.821Z,17.60
2018-05-05T10:19:40.444Z,17.78
2018-05-05T10:22:08.141Z,17.87
2018-05-05T10:24:35.856Z,17.82
2018-05-05T10:27:03.469Z,17.79
2018-05-05T10:29:31.181Z,17.72
2018-05-05T10:31:58.823Z,17.75
2018-05-05T10:34:26.537Z,17.91
2018-05-05T10:36:54.233Z,17.73
2018-05-05T10:39:22.092Z,17.81
2018-05-05T10:41:49.800Z,17.72
2018-05-05T10:44:17.508Z,17.88
2018-05-05T10:46:45.158Z,18.18
2018-05-05T10:49:12.939Z,18.34
2018-05-05T10:51:40.641Z,18.47
2018-05-05T10:54:08.360Z,18.66
2018-05-05T10:56:36.006Z,18.83
2018-05-05T10:59:03.800Z,18.88
2018-05-05T11:01:31.612Z,18.11
2018-05-05T11:03:59.251Z,17.90
2018-05-05T11:06:27.004Z,18.18
2018-05-05T11:08:54.656Z,18.14
2018-05-05T11:11:22.324Z,18.26
2018-05-05T11:13:50.001Z,18.18
2018-05-05T11:16:17.781Z,18.19
2018-05-05T11:18:45.431Z,18.09
2018-05-05T11:21:13.048Z,18.11
2018-05-05T11:23:40.750Z,18.11
2018-05-05T11:26:08.423Z,18.03
2018-05-05T11:28:36.046Z,18.02
2018-05-05T11:31:03.786Z,17.96
2018-05-05T11:33:31.461Z,17.82
2018-05-05T11:35:59.159Z,17.94
2018-05-05T11:38:26.816Z,17.86
2018-05-05T11:40:54.455Z,17.73
2018-05-05T11:43:22.161Z,17.68
2018-05-05T11:45:49.832Z,17.65
2018-05-05T11:48:17.526Z,17.67
2018-05-05T11:50:45.765Z,17.74
2018-05-05T11:53:13.478Z,17.71
2018-05-05T11:55:41.162Z,17.70
2018-05-05T11:58:08.759Z,17.74
2018-05-05T12:00:36.657Z,17.72
2018-05-05T12:03:04.305Z,17.65
2018-05-05T12:05:31.976Z,17.64
2018-05-05T12:07:59.718Z,17.60
2018-05-05T12:10:27.427Z,17.62
2018-05-05T12:12:55.056Z,17.49
2018-05-05T12:15:22.742Z,17.45
2018-05-05T12:17:50.444Z,17.50
2018-05-05T12:20:18.156Z,17.58
2018-05-05T12:22:45.856Z,17.61
2018-05-05T12:25:13.481Z,17.55
2018-05-05T12:27:41.158Z,17.75
2018-05-05T12:30:08.839Z,17.82
2018-05-05T12:32:36.487Z,17.61
2018-05-05T12:35:04.154Z,17.96
2018-05-05T12:37:31.923Z,17.90
2018-05-05T12:39:59.580Z,18.17
2018-05-05T12:42:27.313Z,18.18
2018-05-05T12:44:55.035Z,18.24
2018-05-05T12:47:22.717Z,18.02
2018-05-05T12:49:50.431Z,17.98
2018-05-05T12:52:18.037Z,17.98
2018-05-05T12:54:45.658Z,18.37
2018-05-05T12:57:13.387Z,18.39
2018-05-05T12:59:42.660Z,18.31
2018-05-05T13:02:10.299Z,18.18
2018-05-05T13:04:37.973Z,18.12
2018-05-05T13:07:05.681Z,18.40
2018-05-05T13:09:33.358Z,18.42
2018-05-05T13:12:01.068Z,18.64
2018-05-05T13:14:28.747Z,18.60
2018-05-05T13:16:56.438Z,18.51
2018-05-05T13:19:24.271Z,18.51
2018-05-05T13:21:52.807Z,18.69
2018-05-05T13:24:20.557Z,18.70
2018-05-05T13:26:48.442Z,19.29
2018-05-05T13:29:16.324Z,18.88
2018-05-05T13:31:43.988Z,19.52
2018-05-05T13:34:12.827Z,19.48
2018-05-05T13:36:40.626Z,19.36
2018-05-05T13:39:12.116Z,19.56
2018-05-05T13:41:39.862Z,19.46
2018-05-05T13:44:07.474Z,19.37
2018-05-05T13:46:35.168Z,19.48
2018-05-05T13:49:02.818Z,19.39
2018-05-05T13:51:30.572Z,19.63
2018-05-05T13:53:58.422Z,19.99
2018-05-05T13:56:26.223Z,19.61
2018-05-05T13:58:53.921Z,19.92
2018-05-05T14:01:21.536Z,20.02
2018-05-05T14:03:49.785Z,19.83
2018-05-05T14:06:17.500Z,20.03
2018-05-05T14:08:45.234Z,20.01
2018-05-05T14:11:12.880Z,19.84
2018-05-05T14:13:40.539Z,19.48
2018-05-05T14:16:08.877Z,19.48
2018-05-05T14:18:37.810Z,19.54
2018-05-05T14:21:05.475Z,19.58
2018-05-05T14:23:33.120Z,19.54
2018-05-05T14:26:00.812Z,19.44
2018-05-05T14:28:28.505Z,19.53
2018-05-05T14:30:56.175Z,19.51
2018-05-05T14:33:23.931Z,19.46
2018-05-05T14:35:51.647Z,19.29
2018-05-05T14:38:19.283Z,19.32
2018-05-05T14:40:46.960Z,19.49
2018-05-05T14:43:14.635Z,19.51
2018-05-05T14:45:42.285Z,19.48
2018-05-05T14:48:09.947Z,19.58
2018-05-05T14:50:37.686Z,19.51
2018-05-05T14:53:05.540Z,19.48
2018-05-05T14:55:34.185Z,19.41
2018-05-05T14:58:01.906Z,19.40
2018-05-05T15:00:29.540Z,19.30
2018-05-05T15:02:57.355Z,19.23
2018-05-05T15:05:25.388Z,19.17
2018-05-05T15:07:54.302Z,19.25
2018-05-05T15:10:21.996Z,19.58
2018-05-05T15:12:49.674Z,19.66
2018-05-05T15:15:17.367Z,19.76
2018-05-05T15:17:44.994Z,19.81
2018-05-05T15:20:12.717Z,19.64
2018-05-05T15:22:41.317Z,19.69
2018-05-05T15:25:09.076Z,19.62
2018-05-05T15:27:36.759Z,19.74
2018-05-05T15:30:04.461Z,19.86
2018-05-05T15:32:32.164Z,19.81
2018-05-05T15:34:59.867Z,19.82
2018-05-05T15:37:27.530Z,19.76
2018-05-05T15:39:55.297Z,19.77
2018-05-05T15:42:23.042Z,19.85
2018-05-05T15:44:50.762Z,20.05
2018-05-05T15:47:18.390Z,20.11
2018-05-05T15:49:46.440Z,20.00
2018-05-05T15:52:14.141Z,19.85
2018-05-05T15:54:41.763Z,19.79
2018-05-05T15:57:09.428Z,19.61
2018-05-05T15:59:37.143Z,19.61
2018-05-05T16:02:04.817Z,19.42
2018-05-05T16:04:32.506Z,19.33
2018-05-05T16:07:00.238Z,19.29
2018-05-05T16:09:27.948Z,19.32
2018-05-05T16:11:55.683Z,19.11
2018-05-05T16:14:23.475Z,18.96
2018-05-05T16:16:51.193Z,18.81
2018-05-05T16:19:19.153Z,18.68
2018-05-05T16:21:46.841Z,18.56
2018-05-05T16:24:14.552Z,18.47
2018-05-05T16:26:42.210Z,18.46
2018-05-05T16:29:09.853Z,18.48
2018-05-05T16:31:37.588Z,18.50
2018-05-05T16:34:05.391Z,18.41
2018-05-05T16:36:33.052Z,18.42
2018-05-05T16:39:00.849Z,18.37
2018-05-05T16:41:28.598Z,18.28
2018-05-05T16:43:57.179Z,18.22
2018-05-05T16:46:24.869Z,18.11
2018-05-05T16:48:52.889Z,18.00
2018-05-05T16:51:21.601Z,18.09
2018-05-05T16:53:49.313Z,18.00
2018-05-05T16:56:17.051Z,17.97
2018-05-05T16:58:46.115Z,18.13
2018-05-05T17:01:14.579Z,18.11
2018-05-05T17:03:42.268Z,17.96
2018-05-05T17:06:10.325Z,17.93
2018-05-05T17:08:38.184Z,17.93
2018-05-05T17:11:06.142Z,17.89
2018-05-05T17:13:34.108Z,17.70
2018-05-05T17:16:01.980Z,17.81
2018-05-05T17:18:29.986Z,17.82
2018-05-05T17:20:57.919Z,17.65
2018-05-05T17:23:25.552Z,17.52
2018-05-05T17:25:53.708Z,17.55
2018-05-05T17:28:21.520Z,17.53
2018-05-05T17:30:49.257Z,17.43
2018-05-05T17:33:16.876Z,17.43
2018-05-05T17:35:44.577Z,17.34
2018-05-05T17:38:13.387Z,17.34
2018-05-05T17:40:42.755Z,17.28
2018-05-05T17:43:11.177Z,17.21
2018-05-05T17:45:40.055Z,17.32
2018-05-05T17:48:09.370Z,17.21
2018-05-05T17:50:37.229Z,17.11
2018-05-05T17:53:04.952Z,17.08
2018-05-05T17:55:34.348Z,16.99
2018-05-05T17:58:02.291Z,16.92
2018-05-05T18:00:30.006Z,16.92
2018-05-05T18:02:58.418Z,16.83
2018-05-05T18:05:28.542Z,16.75
2018-05-05T18:07:56.424Z,16.64
2018-05-05T18:10:24.524Z,16.67
2018-05-05T18:12:52.334Z,16.65
2018-05-05T18:15:20.033Z,16.59
2018-05-05T18:17:47.724Z,16.39
2018-05-05T18:20:15.423Z,16.45
2018-05-05T18:22:43.040Z,16.26
2018-05-05T18:25:10.742Z,16.28
2018-05-05T18:27:38.423Z,16.21
2018-05-05T18:30:06.164Z,16.05
2018-05-05T18:32:34.343Z,15.95
2018-05-05T18:35:02.139Z,16.00
2018-05-05T18:37:29.916Z,16.01
2018-05-05T18:39:57.671Z,15.90
2018-05-05T18:42:25.361Z,15.88
2018-05-05T18:44:53.128Z,15.90
2018-05-05T18:47:20.967Z,15.94
2018-05-05T18:49:48.811Z,16.00
2018-05-05T18:52:16.606Z,15.98
2018-05-05T18:54:44.395Z,15.83
2018-05-05T18:57:12.116Z,15.85
2018-05-05T18:59:39.787Z,15.86
2018-05-05T19:02:07.523Z,15.89
2018-05-05T19:04:35.266Z,15.80
2018-05-05T19:07:03.038Z,15.82
2018-05-05T19:09:30.832Z,15.68
2018-05-05T19:11:59.112Z,15.65
2018-05-05T19:14:26.978Z,15.57
2018-05-05T19:16:54.974Z,15.56
2018-05-05T19:19:24.050Z,15.51
2018-05-05T19:21:51.753Z,15.43
2018-05-05T19:24:19.396Z,15.50
2018-05-05T19:26:47.153Z,15.29
2018-05-05T19:29:14.871Z,15.22
2018-05-05T19:31:42.625Z,15.29
2018-05-05T19:34:10.431Z,15.27
2018-05-05T19:36:39.353Z,15.20
2018-05-05T19:39:07.062Z,15.10
2018-05-05T19:41:34.778Z,15.04
2018-05-05T19:44:02.608Z,15.15
2018-05-05T19:46:30.360Z,15.13
2018-05-05T19:48:58.189Z,14.99
2018-05-05T19:51:25.861Z,14.97
2018-05-05T19:53:53.986Z,14.97
2018-05-05T19:56:21.637Z,14.95
2018-05-05T19:58:49.305Z,14.88
2018-05-05T20:01:17.259Z,14.85
2018-05-05T20:03:45.032Z,14.79
2018-05-05T20:06:12.805Z,14.73
2018-05-05T20:08:40.496Z,14.77
2018-05-05T20:11:08.376Z,14.69
2018-05-05T20:13:35.980Z,14.68
2018-05-05T20:16:04.899Z,14.70
2018-05-05T20:18:32.592Z,14.52
2018-05-05T20:21:00.683Z,14.40
2018-05-05T20:23:28.335Z,14.35
2018-05-05T20:25:56.046Z,14.43
2018-05-05T20:28:24.927Z,14.32
2018-05-05T20:30:52.589Z,14.31
2018-05-05T20:33:20.318Z,14.33
2018-05-05T20:35:47.938Z,14.20
2018-05-05T20:38:15.584Z,14.26
2018-05-05T20:40:43.420Z,14.17
2018-05-05T20:43:11.087Z,14.19
2018-05-05T20:45:39.143Z,14.19
2018-05-05T20:48:06.992Z,14.24
2018-05-05T20:50:34.722Z,14.18
2018-05-05T20:53:02.476Z,14.23
2018-05-05T20:55:30.181Z,14.13
2018-05-05T20:57:58.290Z,14.13
2018-05-05T21:00:26.945Z,13.96
2018-05-05T21:02:56.384Z,13.93
2018-05-05T21:05:24.071Z,13.87
2018-05-05T21:07:51.804Z,13.93
2018-05-05T21:10:19.506Z,13.88
2018-05-05T21:12:47.888Z,13.82
2018-05-05T21:15:15.543Z,13.75
2018-05-05T21:17:43.242Z,13.82
2018-05-05T21:20:10.948Z,13.78
2018-05-05T21:22:38.655Z,13.79
2018-05-05T21:25:06.441Z,13.84
2018-05-05T21:27:34.092Z,13.81
2018-05-05T21:30:01.857Z,13.79
2018-05-05T21:32:30.314Z,13.71
2018-05-05T21:34:59.002Z,13.65
2018-05-05T21:37:27.305Z,13.61
2018-05-05T21:39:54.942Z,13.60
2018-05-05T21:42:22.622Z,13.60
2018-05-05T21:44:50.249Z,13.47
2018-05-05T21:47:17.966Z,13.47
2018-05-05T21:49:45.601Z,13.48
2018-05-05T21:52:13.326Z,13.46
2018-05-05T21:54:41.743Z,13.56
2018-05-05T21:57:09.363Z,13.54
2018-05-05T21:59:36.984Z,13.60
2018-05-05T22:02:04.711Z,13.76
2018-05-05T22:04:32.423Z,13.57
2018-05-05T22:07:00.090Z,13.43
2018-05-05T22:09:27.782Z,13.34
2018-05-05T22:11:55.403Z,13.36
2018-05-05T22:14:23.106Z,13.25
2018-05-05T22:16:50.764Z,13.16
2018-05-05T22:19:18.475Z,13.19
2018-05-05T22:21:46.216Z,13.08
2018-05-05T22:24:13.872Z,13.05
2018-05-05T22:26:41.481Z,13.04
2018-05-05T22:29:09.105Z,12.95
2018-05-05T22:31:36.792Z,12.94
2018-05-05T22:34:04.452Z,12.95
2018-05-05T22:36:32.121Z,12.86
2018-05-05T22:38:59.756Z,12.82
2018-05-05T22:41:27.427Z,12.83
2018-05-05T22:43:55.037Z,12.81
2018-05-05T22:46:22.759Z,12.78
2018-05-05T22:48:50.415Z,12.75
2018-05-05T22:51:18.097Z,12.83
2018-05-05T22:53:45.781Z,12.89
2018-05-05T22:56:13.384Z,12.98
2018-05-05T22:58:41.075Z,12.93
2018-05-05T23:01:08.677Z,12.79
2018-05-05T23:03:36.413Z,12.68
2018-05-05T23:06:04.059Z,12.65
2018-05-05T23:08:31.709Z,12.68
2018-05-05T23:10:59.362Z,12.76
2018-05-05T23:13:27.078Z,12.77
2018-05-05T23:15:54.794Z,12.79
2018-05-05T23:18:22.613Z,12.83
2018-05-05T23:20:50.337Z,12.89
2018-05-05T23:23:17.968Z,12.86
2018-05-05T23:25:45.610Z,12.82
2018-05-05T23:28:13.345Z,12.85
2018-05-05T23:30:40.964Z,12.84
2018-05-05T23:33:08.680Z,12.80
2018-05-05T23:35:36.366Z,12.83
2018-05-05T23:38:04.048Z,12.82
2018-05-05T23:40:31.647Z,12.82
2018-05-05T23:42:59.337Z,12.64
2018-05-05T23:45:27.046Z,12.60
2018-05-05T23:47:54.657Z,12.56
2018-05-05T23:50:22.325Z,12.46
2018-05-05T23:52:50.086Z,12.48
2018-05-05T23:55:17.772Z,12.46
2018-05-05T23:57:45.519Z,12.40
